sensor_id;sensor_type;location;lat;lon;timestamp;P1;durP1;ratioP1;P2;durP2;ratioP2
21299;SDS011;10809;49.476;11.016;2022-12-18T00:01:45;55.57;;;23.93;;
21299;SDS011;10809;49.476;11.016;2022-12-18T00:04:21;53.67;;;23.40;;
21299;SDS011;10809;49.476;11.016;2022-12-18T00:06:52;47.63;;;22.73;;
21299;SDS011;10809;49.476;11.016;2022-12-18T00:09:23;50.13;;;23.20;;
21299;SDS011;10809;49.476;11.016;2022-12-18T00:11:54;53.43;;;24.67;;
21299;SDS011;10809;49.476;11.016;2022-12-18T00:14:24;59.47;;;25.87;;
21299;SDS011;10809;49.476;11.016;2022-12-18T00:16:55;51.67;;;24.43;;
21299;SDS011;10809;49.476;11.016;2022-12-18T00:19:25;52.03;;;24.37;;
21299;SDS011;10809;49.476;11.016;2022-12-18T00:21:55;55.60;;;24.17;;
21299;SDS011;10809;49.476;11.016;2022-12-18T00:24:26;52.47;;;24.23;;
21299;SDS011;10809;49.476;11.016;2022-12-18T00:26:56;52.33;;;24.20;;
21299;SDS011;10809;49.476;11.016;2022-12-18T00:29:27;60.83;;;25.07;;
21299;SDS011;10809;49.476;11.016;2022-12-18T00:31:58;46.70;;;24.53;;
21299;SDS011;10809;49.476;11.016;2022-12-18T00:34:28;48.03;;;22.47;;
21299;SDS011;10809;49.476;11.016;2022-12-18T00:36:58;47.47;;;22.30;;
21299;SDS011;10809;49.476;11.016;2022-12-18T00:39:29;47.73;;;22.23;;
21299;SDS011;10809;49.476;11.016;2022-12-18T00:41:59;48.53;;;21.47;;
21299;SDS011;10809;49.476;11.016;2022-12-18T00:44:48;46.53;;;20.50;;
21299;SDS011;10809;49.476;11.016;2022-12-18T00:47:19;42.97;;;19.93;;
21299;SDS011;10809;49.476;11.016;2022-12-18T00:49:49;52.43;;;22.17;;
21299;SDS011;10809;49.476;11.016;2022-12-18T00:52:19;44.50;;;20.37;;
21299;SDS011;10809;49.476;11.016;2022-12-18T00:54:50;41.00;;;19.47;;
21299;SDS011;10809;49.476;11.016;2022-12-18T00:57:20;48.77;;;20.33;;
21299;SDS011;10809;49.476;11.016;2022-12-18T00:59:50;43.33;;;20.40;;
21299;SDS011;10809;49.476;11.016;2022-12-18T01:02:22;45.97;;;19.77;;
21299;SDS011;10809;49.476;11.016;2022-12-18T01:04:53;47.37;;;20.30;;
21299;SDS011;10809;49.476;11.016;2022-12-18T01:07:23;42.80;;;21.53;;
21299;SDS011;10809;49.476;11.016;2022-12-18T01:09:54;51.87;;;22.73;;
21299;SDS011;10809;49.476;11.016;2022-12-18T01:12:24;43.87;;;20.87;;
21299;SDS011;10809;49.476;11.016;2022-12-18T01:14:54;47.70;;;22.57;;
21299;SDS011;10809;49.476;11.016;2022-12-18T01:17:25;44.67;;;22.43;;
21299;SDS011;10809;49.476;11.016;2022-12-18T01:19:56;49.53;;;23.77;;
21299;SDS011;10809;49.476;11.016;2022-12-18T01:22:27;57.93;;;25.50;;
21299;SDS011;10809;49.476;11.016;2022-12-18T01:24:58;55.23;;;25.17;;
21299;SDS011;10809;49.476;11.016;2022-12-18T01:27:28;54.13;;;26.20;;
21299;SDS011;10809;49.476;11.016;2022-12-18T01:29:59;59.07;;;28.23;;
21299;SDS011;10809;49.476;11.016;2022-12-18T01:32:30;52.93;;;26.57;;
21299;SDS011;10809;49.476;11.016;2022-12-18T01:35:01;60.17;;;25.73;;
21299;SDS011;10809;49.476;11.016;2022-12-18T01:37:32;53.67;;;24.93;;
21299;SDS011;10809;49.476;11.016;2022-12-18T01:40:02;56.50;;;24.83;;
21299;SDS011;10809;49.476;11.016;2022-12-18T01:42:33;51.43;;;24.10;;
21299;SDS011;10809;49.476;11.016;2022-12-18T01:50:15;50.83;;;23.17;;
21299;SDS011;10809;49.476;11.016;2022-12-18T01:52:52;56.27;;;23.40;;
21299;SDS011;10809;49.476;11.016;2022-12-18T01:55:25;45.83;;;23.23;;
21299;SDS011;10809;49.476;11.016;2022-12-18T01:57:58;49.83;;;21.00;;
21299;SDS011;10809;49.476;11.016;2022-12-18T02:00:30;44.33;;;21.37;;
21299;SDS011;10809;49.476;11.016;2022-12-18T02:03:01;50.17;;;21.17;;
21299;SDS011;10809;49.476;11.016;2022-12-18T02:05:54;47.30;;;19.57;;
21299;SDS011;10809;49.476;11.016;2022-12-18T02:14:26;47.93;;;18.57;;
21299;SDS011;10809;49.476;11.016;2022-12-18T02:17:14;44.83;;;17.97;;
21299;SDS011;10809;49.476;11.016;2022-12-18T02:22:55;46.40;;;18.03;;
21299;SDS011;10809;49.476;11.016;2022-12-18T02:25:51;49.87;;;18.97;;
21299;SDS011;10809;49.476;11.016;2022-12-18T02:28:34;49.97;;;19.23;;
21299;SDS011;10809;49.476;11.016;2022-12-18T02:31:14;47.47;;;20.20;;
21299;SDS011;10809;49.476;11.016;2022-12-18T02:33:47;40.80;;;17.30;;
21299;SDS011;10809;49.476;11.016;2022-12-18T02:36:22;44.30;;;17.50;;
21299;SDS011;10809;49.476;11.016;2022-12-18T02:38:56;41.67;;;17.33;;
21299;SDS011;10809;49.476;11.016;2022-12-18T02:41:29;43.20;;;18.60;;
21299;SDS011;10809;49.476;11.016;2022-12-18T02:44:06;40.77;;;17.50;;
21299;SDS011;10809;49.476;11.016;2022-12-18T02:46:39;44.23;;;16.83;;
21299;SDS011;10809;49.476;11.016;2022-12-18T02:49:35;52.00;;;20.17;;
21299;SDS011;10809;49.476;11.016;2022-12-18T02:58:06;40.60;;;16.30;;
21299;SDS011;10809;49.476;11.016;2022-12-18T03:01:05;43.10;;;15.60;;
21299;SDS011;10809;49.476;11.016;2022-12-18T03:03:47;34.83;;;15.87;;
21299;SDS011;10809;49.476;11.016;2022-12-18T03:06:29;44.20;;;17.37;;
21299;SDS011;10809;49.476;11.016;2022-12-18T03:09:06;45.23;;;16.63;;
21299;SDS011;10809;49.476;11.016;2022-12-18T03:11:40;37.20;;;15.53;;
21299;SDS011;10809;49.476;11.016;2022-12-18T03:14:33;46.47;;;18.03;;
21299;SDS011;10809;49.476;11.016;2022-12-18T03:17:09;38.53;;;16.20;;
21299;SDS011;10809;49.476;11.016;2022-12-18T03:19:43;44.00;;;18.03;;
21299;SDS011;10809;49.476;11.016;2022-12-18T03:22:16;41.87;;;16.73;;
21299;SDS011;10809;49.476;11.016;2022-12-18T03:24:52;42.57;;;16.17;;
21299;SDS011;10809;49.476;11.016;2022-12-18T03:27:27;39.70;;;16.00;;
21299;SDS011;10809;49.476;11.016;2022-12-18T03:30:05;37.83;;;15.30;;
21299;SDS011;10809;49.476;11.016;2022-12-18T03:32:42;41.83;;;16.97;;
21299;SDS011;10809;49.476;11.016;2022-12-18T03:35:21;35.53;;;15.93;;
21299;SDS011;10809;49.476;11.016;2022-12-18T03:37:56;35.23;;;14.90;;
21299;SDS011;10809;49.476;11.016;2022-12-18T03:40:31;36.77;;;15.43;;
21299;SDS011;10809;49.476;11.016;2022-12-18T03:43:16;35.57;;;15.07;;
21299;SDS011;10809;49.476;11.016;2022-12-18T03:46:02;37.37;;;15.90;;
21299;SDS011;10809;49.476;11.016;2022-12-18T03:48:51;40.40;;;15.63;;
21299;SDS011;10809;49.476;11.016;2022-12-18T03:51:31;46.87;;;16.90;;
21299;SDS011;10809;49.476;11.016;2022-12-18T03:54:10;36.07;;;14.70;;
21299;SDS011;10809;49.476;11.016;2022-12-18T03:56:48;37.00;;;15.60;;
21299;SDS011;10809;49.476;11.016;2022-12-18T03:59:25;42.33;;;17.47;;
21299;SDS011;10809;49.476;11.016;2022-12-18T04:02:00;40.47;;;15.77;;
21299;SDS011;10809;49.476;11.016;2022-12-18T04:04:34;38.83;;;14.10;;
21299;SDS011;10809;49.476;11.016;2022-12-18T04:07:08;39.10;;;15.90;;
21299;SDS011;10809;49.476;11.016;2022-12-18T04:09:42;36.63;;;14.07;;
21299;SDS011;10809;49.476;11.016;2022-12-18T04:12:16;31.90;;;13.20;;
21299;SDS011;10809;49.476;11.016;2022-12-18T04:14:49;27.77;;;12.97;;
21299;SDS011;10809;49.476;11.016;2022-12-18T04:17:21;28.13;;;13.67;;
21299;SDS011;10809;49.476;11.016;2022-12-18T04:19:53;30.43;;;13.00;;
21299;SDS011;10809;49.476;11.016;2022-12-18T04:22:23;29.20;;;12.97;;
21299;SDS011;10809;49.476;11.016;2022-12-18T04:24:59;30.37;;;13.03;;
21299;SDS011;10809;49.476;11.016;2022-12-18T04:27:37;27.23;;;13.30;;
21299;SDS011;10809;49.476;11.016;2022-12-18T04:30:09;32.43;;;13.57;;
21299;SDS011;10809;49.476;11.016;2022-12-18T04:32:39;25.40;;;12.17;;
21299;SDS011;10809;49.476;11.016;2022-12-18T04:35:12;26.13;;;11.47;;
21299;SDS011;10809;49.476;11.016;2022-12-18T04:37:45;25.47;;;12.57;;
21299;SDS011;10809;49.476;11.016;2022-12-18T04:40:16;29.47;;;11.73;;
21299;SDS011;10809;49.476;11.016;2022-12-18T04:42:50;29.83;;;13.03;;
21299;SDS011;10809;49.476;11.016;2022-12-18T04:45:20;30.70;;;12.50;;
21299;SDS011;10809;49.476;11.016;2022-12-18T04:47:51;27.33;;;11.37;;
21299;SDS011;10809;49.476;11.016;2022-12-18T04:50:21;29.43;;;11.53;;
21299;SDS011;10809;49.476;11.016;2022-12-18T04:52:51;25.70;;;12.07;;
21299;SDS011;10809;49.476;11.016;2022-12-18T04:55:25;26.83;;;11.80;;
21299;SDS011;10809;49.476;11.016;2022-12-18T04:57:55;23.50;;;11.80;;
21299;SDS011;10809;49.476;11.016;2022-12-18T05:00:26;27.87;;;12.03;;
21299;SDS011;10809;49.476;11.016;2022-12-18T05:02:56;30.53;;;12.73;;
21299;SDS011;10809;49.476;11.016;2022-12-18T05:05:26;25.73;;;11.77;;
21299;SDS011;10809;49.476;11.016;2022-12-18T05:07:57;28.90;;;11.87;;
21299;SDS011;10809;49.476;11.016;2022-12-18T05:10:27;26.63;;;12.13;;
21299;SDS011;10809;49.476;11.016;2022-12-18T05:12:57;32.03;;;12.80;;
21299;SDS011;10809;49.476;11.016;2022-12-18T05:15:31;28.47;;;12.13;;
21299;SDS011;10809;49.476;11.016;2022-12-18T05:18:02;34.13;;;13.70;;
21299;SDS011;10809;49.476;11.016;2022-12-18T05:20:33;32.03;;;14.30;;
21299;SDS011;10809;49.476;11.016;2022-12-18T05:23:04;27.73;;;12.00;;
21299;SDS011;10809;49.476;11.016;2022-12-18T05:25:34;29.53;;;12.70;;
21299;SDS011;10809;49.476;11.016;2022-12-18T05:28:04;29.30;;;13.67;;
21299;SDS011;10809;49.476;11.016;2022-12-18T05:30:35;29.97;;;12.93;;
21299;SDS011;10809;49.476;11.016;2022-12-18T05:33:05;30.33;;;12.30;;
21299;SDS011;10809;49.476;11.016;2022-12-18T05:35:35;31.03;;;12.83;;
21299;SDS011;10809;49.476;11.016;2022-12-18T05:38:06;28.17;;;13.60;;
21299;SDS011;10809;49.476;11.016;2022-12-18T05:40:36;26.13;;;12.37;;
21299;SDS011;10809;49.476;11.016;2022-12-18T05:43:06;28.40;;;12.70;;
21299;SDS011;10809;49.476;11.016;2022-12-18T05:45:37;33.13;;;12.20;;
21299;SDS011;10809;49.476;11.016;2022-12-18T05:48:08;30.83;;;12.33;;
21299;SDS011;10809;49.476;11.016;2022-12-18T05:50:40;27.90;;;12.13;;
21299;SDS011;10809;49.476;11.016;2022-12-18T05:53:12;27.40;;;12.27;;
21299;SDS011;10809;49.476;11.016;2022-12-18T05:55:44;34.40;;;13.97;;
21299;SDS011;10809;49.476;11.016;2022-12-18T05:58:15;28.87;;;12.70;;
21299;SDS011;10809;49.476;11.016;2022-12-18T06:00:46;27.57;;;12.17;;
21299;SDS011;10809;49.476;11.016;2022-12-18T06:03:16;28.83;;;13.10;;
21299;SDS011;10809;49.476;11.016;2022-12-18T06:05:46;29.83;;;12.03;;
21299;SDS011;10809;49.476;11.016;2022-12-18T06:08:17;28.17;;;12.33;;
21299;SDS011;10809;49.476;11.016;2022-12-18T06:10:51;30.53;;;12.97;;
21299;SDS011;10809;49.476;11.016;2022-12-18T06:13:22;26.90;;;12.53;;
21299;SDS011;10809;49.476;11.016;2022-12-18T06:15:53;28.63;;;13.03;;
21299;SDS011;10809;49.476;11.016;2022-12-18T06:18:23;30.10;;;12.50;;
21299;SDS011;10809;49.476;11.016;2022-12-18T06:20:54;28.37;;;12.67;;
21299;SDS011;10809;49.476;11.016;2022-12-18T06:23:26;30.43;;;11.70;;
21299;SDS011;10809;49.476;11.016;2022-12-18T06:25:56;27.03;;;11.83;;
21299;SDS011;10809;49.476;11.016;2022-12-18T06:28:27;26.90;;;12.43;;
21299;SDS011;10809;49.476;11.016;2022-12-18T06:30:57;26.13;;;11.30;;
21299;SDS011;10809;49.476;11.016;2022-12-18T06:33:28;30.23;;;11.73;;
21299;SDS011;10809;49.476;11.016;2022-12-18T06:36:02;27.57;;;11.80;;
21299;SDS011;10809;49.476;11.016;2022-12-18T06:38:34;24.30;;;10.90;;
21299;SDS011;10809;49.476;11.016;2022-12-18T06:41:09;28.63;;;11.67;;
21299;SDS011;10809;49.476;11.016;2022-12-18T06:43:42;32.83;;;12.43;;
21299;SDS011;10809;49.476;11.016;2022-12-18T06:46:12;26.07;;;11.83;;
21299;SDS011;10809;49.476;11.016;2022-12-18T06:48:46;32.07;;;12.07;;
21299;SDS011;10809;49.476;11.016;2022-12-18T06:51:17;29.30;;;13.20;;
21299;SDS011;10809;49.476;11.016;2022-12-18T06:53:49;26.07;;;11.27;;
21299;SDS011;10809;49.476;11.016;2022-12-18T06:56:20;24.10;;;11.27;;
21299;SDS011;10809;49.476;11.016;2022-12-18T06:58:50;33.60;;;12.83;;
21299;SDS011;10809;49.476;11.016;2022-12-18T07:01:21;32.57;;;12.90;;
21299;SDS011;10809;49.476;11.016;2022-12-18T07:03:52;27.77;;;12.10;;
21299;SDS011;10809;49.476;11.016;2022-12-18T07:06:24;29.17;;;11.93;;
21299;SDS011;10809;49.476;11.016;2022-12-18T07:08:55;34.70;;;12.57;;
21299;SDS011;10809;49.476;11.016;2022-12-18T07:11:43;28.33;;;10.40;;
21299;SDS011;10809;49.476;11.016;2022-12-18T07:14:14;30.00;;;11.47;;
21299;SDS011;10809;49.476;11.016;2022-12-18T07:16:44;28.90;;;12.40;;
21299;SDS011;10809;49.476;11.016;2022-12-18T07:19:14;27.67;;;11.90;;
21299;SDS011;10809;49.476;11.016;2022-12-18T07:21:45;29.30;;;12.93;;
21299;SDS011;10809;49.476;11.016;2022-12-18T07:24:15;28.17;;;12.57;;
21299;SDS011;10809;49.476;11.016;2022-12-18T07:26:46;33.37;;;12.60;;
21299;SDS011;10809;49.476;11.016;2022-12-18T07:29:16;29.67;;;10.97;;
21299;SDS011;10809;49.476;11.016;2022-12-18T07:31:47;28.20;;;11.40;;
21299;SDS011;10809;49.476;11.016;2022-12-18T07:34:17;26.60;;;12.53;;
21299;SDS011;10809;49.476;11.016;2022-12-18T07:36:48;26.13;;;11.57;;
21299;SDS011;10809;49.476;11.016;2022-12-18T07:39:18;30.87;;;12.70;;
21299;SDS011;10809;49.476;11.016;2022-12-18T07:41:48;26.50;;;12.13;;
21299;SDS011;10809;49.476;11.016;2022-12-18T07:44:39;32.33;;;12.33;;
21299;SDS011;10809;49.476;11.016;2022-12-18T07:47:09;30.17;;;13.07;;
21299;SDS011;10809;49.476;11.016;2022-12-18T07:49:39;30.30;;;11.27;;
21299;SDS011;10809;49.476;11.016;2022-12-18T07:52:10;28.53;;;12.17;;
21299;SDS011;10809;49.476;11.016;2022-12-18T07:54:42;29.47;;;12.40;;
21299;SDS011;10809;49.476;11.016;2022-12-18T07:57:14;29.13;;;12.40;;
21299;SDS011;10809;49.476;11.016;2022-12-18T07:59:44;30.70;;;12.93;;
21299;SDS011;10809;49.476;11.016;2022-12-18T08:02:14;27.83;;;12.03;;
21299;SDS011;10809;49.476;11.016;2022-12-18T08:04:45;29.73;;;14.23;;
21299;SDS011;10809;49.476;11.016;2022-12-18T08:07:15;28.90;;;12.30;;
21299;SDS011;10809;49.476;11.016;2022-12-18T08:09:45;33.10;;;13.23;;
21299;SDS011;10809;49.476;11.016;2022-12-18T08:12:16;30.10;;;13.00;;
21299;SDS011;10809;49.476;11.016;2022-12-18T08:14:46;26.10;;;12.30;;
21299;SDS011;10809;49.476;11.016;2022-12-18T08:17:16;30.57;;;12.63;;
21299;SDS011;10809;49.476;11.016;2022-12-18T08:19:47;34.33;;;14.10;;
21299;SDS011;10809;49.476;11.016;2022-12-18T08:22:17;26.83;;;11.60;;
21299;SDS011;10809;49.476;11.016;2022-12-18T08:24:47;30.00;;;13.73;;
21299;SDS011;10809;49.476;11.016;2022-12-18T08:27:18;36.37;;;13.90;;
21299;SDS011;10809;49.476;11.016;2022-12-18T08:29:48;31.27;;;13.27;;
21299;SDS011;10809;49.476;11.016;2022-12-18T08:32:18;34.87;;;13.53;;
21299;SDS011;10809;49.476;11.016;2022-12-18T08:34:49;34.67;;;12.93;;
21299;SDS011;10809;49.476;11.016;2022-12-18T08:37:19;32.03;;;13.63;;
21299;SDS011;10809;49.476;11.016;2022-12-18T08:39:49;30.37;;;13.13;;
21299;SDS011;10809;49.476;11.016;2022-12-18T08:42:20;32.57;;;14.30;;
21299;SDS011;10809;49.476;11.016;2022-12-18T08:45:09;28.80;;;11.87;;
21299;SDS011;10809;49.476;11.016;2022-12-18T08:47:39;34.03;;;13.87;;
21299;SDS011;10809;49.476;11.016;2022-12-18T08:50:10;30.37;;;13.40;;
21299;SDS011;10809;49.476;11.016;2022-12-18T08:52:41;31.17;;;12.40;;
21299;SDS011;10809;49.476;11.016;2022-12-18T08:55:12;28.10;;;12.10;;
21299;SDS011;10809;49.476;11.016;2022-12-18T08:57:42;31.03;;;13.00;;
21299;SDS011;10809;49.476;11.016;2022-12-18T09:00:13;27.97;;;11.87;;
21299;SDS011;10809;49.476;11.016;2022-12-18T09:02:43;31.37;;;13.00;;
21299;SDS011;10809;49.476;11.016;2022-12-18T09:05:14;28.07;;;12.20;;
21299;SDS011;10809;49.476;11.016;2022-12-18T09:07:44;29.90;;;12.43;;
21299;SDS011;10809;49.476;11.016;2022-12-18T09:10:15;25.83;;;12.50;;
21299;SDS011;10809;49.476;11.016;2022-12-18T09:12:45;28.07;;;13.00;;
21299;SDS011;10809;49.476;11.016;2022-12-18T09:15:15;30.90;;;13.40;;
21299;SDS011;10809;49.476;11.016;2022-12-18T09:17:46;28.87;;;12.20;;
21299;SDS011;10809;49.476;11.016;2022-12-18T09:20:16;23.63;;;11.13;;
21299;SDS011;10809;49.476;11.016;2022-12-18T09:22:47;29.93;;;12.67;;
21299;SDS011;10809;49.476;11.016;2022-12-18T09:25:17;25.80;;;12.37;;
21299;SDS011;10809;49.476;11.016;2022-12-18T09:27:47;26.20;;;11.70;;
21299;SDS011;10809;49.476;11.016;2022-12-18T09:30:18;24.97;;;11.13;;
21299;SDS011;10809;49.476;11.016;2022-12-18T09:32:48;24.07;;;11.60;;
21299;SDS011;10809;49.476;11.016;2022-12-18T09:35:18;29.37;;;11.53;;
21299;SDS011;10809;49.476;11.016;2022-12-18T09:37:49;30.37;;;11.80;;
21299;SDS011;10809;49.476;11.016;2022-12-18T09:40:21;25.50;;;11.37;;
21299;SDS011;10809;49.476;11.016;2022-12-18T09:42:56;27.50;;;12.20;;
21299;SDS011;10809;49.476;11.016;2022-12-18T09:45:38;26.33;;;12.47;;
21299;SDS011;10809;49.476;11.016;2022-12-18T09:48:18;27.67;;;12.50;;
21299;SDS011;10809;49.476;11.016;2022-12-18T09:50:55;27.77;;;12.97;;
21299;SDS011;10809;49.476;11.016;2022-12-18T09:53:34;25.13;;;12.53;;
21299;SDS011;10809;49.476;11.016;2022-12-18T09:56:10;29.27;;;12.33;;
21299;SDS011;10809;49.476;11.016;2022-12-18T09:58:53;26.23;;;11.57;;
21299;SDS011;10809;49.476;11.016;2022-12-18T10:01:28;25.13;;;11.80;;
21299;SDS011;10809;49.476;11.016;2022-12-18T10:04:00;26.70;;;11.27;;
21299;SDS011;10809;49.476;11.016;2022-12-18T10:18:03;24.70;;;11.03;;
21299;SDS011;10809;49.476;11.016;2022-12-18T10:20:46;26.37;;;12.90;;
21299;SDS011;10809;49.476;11.016;2022-12-18T10:23:22;23.20;;;11.77;;
21299;SDS011;10809;49.476;11.016;2022-12-18T10:26:10;26.80;;;12.27;;
21299;SDS011;10809;49.476;11.016;2022-12-18T10:28:42;23.63;;;11.50;;
21299;SDS011;10809;49.476;11.016;2022-12-18T10:33:48;28.93;;;12.90;;
21299;SDS011;10809;49.476;11.016;2022-12-18T10:36:19;19.57;;;10.47;;
21299;SDS011;10809;49.476;11.016;2022-12-18T10:38:50;22.03;;;9.60;;
21299;SDS011;10809;49.476;11.016;2022-12-18T10:46:41;26.17;;;11.37;;
21299;SDS011;10809;49.476;11.016;2022-12-18T10:54:51;25.30;;;10.73;;
21299;SDS011;10809;49.476;11.016;2022-12-18T11:02:58;23.67;;;11.00;;
21299;SDS011;10809;49.476;11.016;2022-12-18T11:08:00;22.73;;;10.53;;
21299;SDS011;10809;49.476;11.016;2022-12-18T11:10:32;22.60;;;11.33;;
21299;SDS011;10809;49.476;11.016;2022-12-18T11:13:14;20.00;;;9.70;;
21299;SDS011;10809;49.476;11.016;2022-12-18T11:15:48;21.50;;;11.27;;
21299;SDS011;10809;49.476;11.016;2022-12-18T11:20:57;24.63;;;12.00;;
21299;SDS011;10809;49.476;11.016;2022-12-18T11:23:31;21.57;;;10.33;;
21299;SDS011;10809;49.476;11.016;2022-12-18T11:26:02;27.03;;;10.57;;
21299;SDS011;10809;49.476;11.016;2022-12-18T11:28:37;24.00;;;11.07;;
21299;SDS011;10809;49.476;11.016;2022-12-18T11:31:18;22.93;;;10.37;;
21299;SDS011;10809;49.476;11.016;2022-12-18T11:34:38;22.77;;;10.13;;
21299;SDS011;10809;49.476;11.016;2022-12-18T11:36:52;26.63;;;12.00;;
21299;SDS011;10809;49.476;11.016;2022-12-18T11:39:30;20.13;;;10.10;;
21299;SDS011;10809;49.476;11.016;2022-12-18T11:42:14;24.83;;;11.77;;
21299;SDS011;10809;49.476;11.016;2022-12-18T11:44:54;22.00;;;9.97;;
21299;SDS011;10809;49.476;11.016;2022-12-18T11:50:32;22.00;;;9.97;;
21299;SDS011;10809;49.476;11.016;2022-12-18T11:53:09;23.73;;;10.67;;
21299;SDS011;10809;49.476;11.016;2022-12-18T11:55:47;24.13;;;10.67;;
21299;SDS011;10809;49.476;11.016;2022-12-18T11:58:38;25.77;;;10.83;;
21299;SDS011;10809;49.476;11.016;2022-12-18T12:04:32;23.40;;;10.73;;
21299;SDS011;10809;49.476;11.016;2022-12-18T12:07:24;26.33;;;11.37;;
21299;SDS011;10809;49.476;11.016;2022-12-18T12:27:12;23.57;;;10.50;;
21299;SDS011;10809;49.476;11.016;2022-12-18T12:35:29;22.63;;;10.10;;
21299;SDS011;10809;49.476;11.016;2022-12-18T12:38:16;24.60;;;11.27;;
21299;SDS011;10809;49.476;11.016;2022-12-18T12:40:59;24.07;;;11.07;;
21299;SDS011;10809;49.476;11.016;2022-12-18T12:43:37;23.57;;;11.03;;
21299;SDS011;10809;49.476;11.016;2022-12-18T12:46:13;21.90;;;10.43;;
21299;SDS011;10809;49.476;11.016;2022-12-18T12:48:50;22.80;;;10.90;;
21299;SDS011;10809;49.476;11.016;2022-12-18T12:51:57;24.07;;;11.30;;
21299;SDS011;10809;49.476;11.016;2022-12-18T12:54:26;21.67;;;10.10;;
21299;SDS011;10809;49.476;11.016;2022-12-18T12:59:45;19.20;;;9.40;;
21299;SDS011;10809;49.476;11.016;2022-12-18T13:05:41;23.17;;;10.47;;
21299;SDS011;10809;49.476;11.016;2022-12-18T13:08:24;23.20;;;10.87;;
21299;SDS011;10809;49.476;11.016;2022-12-18T13:11:00;19.70;;;10.07;;
21299;SDS011;10809;49.476;11.016;2022-12-18T13:13:50;25.43;;;11.37;;
21299;SDS011;10809;49.476;11.016;2022-12-18T13:16:23;23.23;;;10.97;;
21299;SDS011;10809;49.476;11.016;2022-12-18T13:18:55;26.60;;;11.57;;
21299;SDS011;10809;49.476;11.016;2022-12-18T13:21:29;23.60;;;10.90;;
21299;SDS011;10809;49.476;11.016;2022-12-18T13:24:15;23.97;;;10.90;;
21299;SDS011;10809;49.476;11.016;2022-12-18T13:26:53;22.03;;;10.63;;
21299;SDS011;10809;49.476;11.016;2022-12-18T13:32:24;25.10;;;9.67;;
21299;SDS011;10809;49.476;11.016;2022-12-18T13:35:39;24.07;;;10.37;;
21299;SDS011;10809;49.476;11.016;2022-12-18T13:37:53;25.17;;;11.43;;
21299;SDS011;10809;49.476;11.016;2022-12-18T13:40:49;21.67;;;10.17;;
21299;SDS011;10809;49.476;11.016;2022-12-18T13:51:34;21.37;;;10.10;;
21299;SDS011;10809;49.476;11.016;2022-12-18T14:00:27;25.03;;;11.30;;
21299;SDS011;10809;49.476;11.016;2022-12-18T14:02:59;21.73;;;10.70;;
21299;SDS011;10809;49.476;11.016;2022-12-18T14:05:30;21.93;;;10.93;;
21299;SDS011;10809;49.476;11.016;2022-12-18T14:08:06;22.60;;;11.17;;
21299;SDS011;10809;49.476;11.016;2022-12-18T14:10:44;26.00;;;11.60;;
21299;SDS011;10809;49.476;11.016;2022-12-18T14:13:26;24.43;;;11.47;;
21299;SDS011;10809;49.476;11.016;2022-12-18T14:16:00;27.87;;;12.23;;
21299;SDS011;10809;49.476;11.016;2022-12-18T14:18:36;24.90;;;12.53;;
21299;SDS011;10809;49.476;11.016;2022-12-18T14:21:30;22.70;;;10.17;;
21299;SDS011;10809;49.476;11.016;2022-12-18T14:26:51;23.47;;;10.83;;
21299;SDS011;10809;49.476;11.016;2022-12-18T14:29:23;24.67;;;12.10;;
21299;SDS011;10809;49.476;11.016;2022-12-18T14:32:11;27.90;;;11.87;;
21299;SDS011;10809;49.476;11.016;2022-12-18T14:34:48;25.13;;;11.17;;
21299;SDS011;10809;49.476;11.016;2022-12-18T14:37:28;23.33;;;11.50;;
21299;SDS011;10809;49.476;11.016;2022-12-18T14:40:02;22.90;;;10.23;;
21299;SDS011;10809;49.476;11.016;2022-12-18T14:42:34;22.07;;;11.00;;
21299;SDS011;10809;49.476;11.016;2022-12-18T14:48:08;23.63;;;11.13;;
21299;SDS011;10809;49.476;11.016;2022-12-18T14:50:44;24.43;;;11.37;;
21299;SDS011;10809;49.476;11.016;2022-12-18T14:53:24;22.07;;;10.73;;
21299;SDS011;10809;49.476;11.016;2022-12-18T14:56:10;21.77;;;9.53;;
21299;SDS011;10809;49.476;11.016;2022-12-18T14:58:46;24.47;;;11.23;;
21299;SDS011;10809;49.476;11.016;2022-12-18T15:01:25;26.33;;;10.60;;
21299;SDS011;10809;49.476;11.016;2022-12-18T15:04:05;28.00;;;12.23;;
21299;SDS011;10809;49.476;11.016;2022-12-18T15:09:39;19.47;;;9.60;;
21299;SDS011;10809;49.476;11.016;2022-12-18T15:12:19;24.03;;;10.67;;
21299;SDS011;10809;49.476;11.016;2022-12-18T15:14:56;24.10;;;10.03;;
21299;SDS011;10809;49.476;11.016;2022-12-18T15:17:26;23.43;;;10.57;;
21299;SDS011;10809;49.476;11.016;2022-12-18T15:20:00;18.67;;;10.47;;
21299;SDS011;10809;49.476;11.016;2022-12-18T15:22:34;22.20;;;10.57;;
21299;SDS011;10809;49.476;11.016;2022-12-18T15:25:21;23.60;;;10.70;;
21299;SDS011;10809;49.476;11.016;2022-12-18T15:28:13;23.03;;;10.70;;
21299;SDS011;10809;49.476;11.016;2022-12-18T15:31:05;21.27;;;11.00;;
21299;SDS011;10809;49.476;11.016;2022-12-18T15:36:23;19.13;;;10.17;;
21299;SDS011;10809;49.476;11.016;2022-12-18T15:38:54;20.00;;;9.43;;
21299;SDS011;10809;49.476;11.016;2022-12-18T15:41:27;20.20;;;9.60;;
21299;SDS011;10809;49.476;11.016;2022-12-18T15:43:58;25.17;;;9.97;;
21299;SDS011;10809;49.476;11.016;2022-12-18T15:46:28;20.10;;;9.97;;
21299;SDS011;10809;49.476;11.016;2022-12-18T15:48:58;24.90;;;11.30;;
21299;SDS011;10809;49.476;11.016;2022-12-18T15:51:30;20.93;;;10.37;;
21299;SDS011;10809;49.476;11.016;2022-12-18T15:54:06;22.20;;;10.20;;
21299;SDS011;10809;49.476;11.016;2022-12-18T15:56:41;25.60;;;12.97;;
21299;SDS011;10809;49.476;11.016;2022-12-18T15:59:30;20.43;;;11.33;;
21299;SDS011;10809;49.476;11.016;2022-12-18T16:02:00;22.63;;;10.60;;
21299;SDS011;10809;49.476;11.016;2022-12-18T16:04:31;25.33;;;11.33;;
21299;SDS011;10809;49.476;11.016;2022-12-18T16:07:01;25.03;;;11.00;;
21299;SDS011;10809;49.476;11.016;2022-12-18T16:09:31;21.57;;;10.03;;
21299;SDS011;10809;49.476;11.016;2022-12-18T16:12:02;25.77;;;11.13;;
21299;SDS011;10809;49.476;11.016;2022-12-18T16:14:32;24.13;;;11.63;;
21299;SDS011;10809;49.476;11.016;2022-12-18T16:17:03;23.07;;;11.60;;
21299;SDS011;10809;49.476;11.016;2022-12-18T16:19:38;28.17;;;12.17;;
21299;SDS011;10809;49.476;11.016;2022-12-18T16:22:17;23.40;;;11.77;;
21299;SDS011;10809;49.476;11.016;2022-12-18T16:24:53;23.87;;;12.00;;
21299;SDS011;10809;49.476;11.016;2022-12-18T16:27:24;20.43;;;11.13;;
21299;SDS011;10809;49.476;11.016;2022-12-18T16:29:55;23.20;;;12.70;;
21299;SDS011;10809;49.476;11.016;2022-12-18T16:32:25;24.57;;;12.33;;
21299;SDS011;10809;49.476;11.016;2022-12-18T16:34:59;26.13;;;10.97;;
21299;SDS011;10809;49.476;11.016;2022-12-18T16:37:29;25.23;;;11.50;;
21299;SDS011;10809;49.476;11.016;2022-12-18T16:40:00;24.53;;;10.97;;
21299;SDS011;10809;49.476;11.016;2022-12-18T16:42:30;28.53;;;13.03;;
21299;SDS011;10809;49.476;11.016;2022-12-18T16:45:00;24.80;;;11.60;;
21299;SDS011;10809;49.476;11.016;2022-12-18T16:47:31;25.00;;;12.87;;
21299;SDS011;10809;49.476;11.016;2022-12-18T16:50:01;28.87;;;12.20;;